CheckWX is a tool to help pilots better visualize weather data.  It is not intended as a substitute for an official pre-flight weather briefing.

19:24:44 UTC

KRPJ METAR
Rochelle Municipal-Koritz Field Airport
Rochelle, Illinois, USA
Current

10 mins ago

KRPJ 261915Z AUTO 00000KT 10SM SCT095 BKN120 22/17 A3008 RMK AO2 T02150168
Observed
May-26 @ 19:15 UTC
Visibility
10 SM
Flight Rules
VFR
Cloud Levels
  • Scattered at 9,500' AGL
  • Broken at 12,000' AGL
Temperature
22°C / 72°F
Dewpoint
17°C / 63°F
Humidity
73%
Altimeter
30.08" Hg
Pressure
1018.62 hPa
Previous

30 mins ago

KRPJ 261855Z AUTO 00000KT 10SM OVC120 21/16 A3007 RMK AO2 T02090159
Observed
May-26 @ 18:55 UTC
Visibility
10 SM
Flight Rules
VFR
Cloud Levels
  • Overcast at 12,000' AGL
Temperature
21°C / 70°F
Dewpoint
16°C / 61°F
Humidity
73%
Altimeter
30.07" Hg
Pressure
1018.32 hPa
Previous

50 mins ago

KRPJ 261835Z AUTO 00000KT 10SM OVC110 20/16 A3008 RMK AO2 T02040157
Observed
May-26 @ 18:35 UTC
Visibility
10 SM
Flight Rules
VFR
Cloud Levels
  • Overcast at 11,000' AGL
Temperature
20°C / 68°F
Dewpoint
16°C / 61°F
Humidity
78%
Altimeter
30.08" Hg
Pressure
1018.62 hPa